sensor_id;sensor_type;location;lat;lon;timestamp;P1;durP1;ratioP1;P2;durP2;ratioP2
40867;SDS011;26586;50.708;22.412;2023-06-14T00:00:54;0.47;;;0.47;;
40867;SDS011;26586;50.708;22.412;2023-06-14T00:03:42;0.30;;;0.30;;
40867;SDS011;26586;50.708;22.412;2023-06-14T00:06:08;0.05;;;0.05;;
40867;SDS011;26586;50.708;22.412;2023-06-14T00:08:34;0.43;;;0.15;;
40867;SDS011;26586;50.708;22.412;2023-06-14T00:11:00;0.10;;;0.10;;
40867;SDS011;26586;50.708;22.412;2023-06-14T00:13:27;0.22;;;0.20;;
40867;SDS011;26586;50.708;22.412;2023-06-14T00:15:53;0.00;;;0.00;;
40867;SDS011;26586;50.708;22.412;2023-06-14T00:18:21;0.10;;;0.10;;
40867;SDS011;26586;50.708;22.412;2023-06-14T00:20:52;0.00;;;0.00;;
40867;SDS011;26586;50.708;22.412;2023-06-14T00:23:18;1.05;;;0.28;;
40867;SDS011;26586;50.708;22.412;2023-06-14T00:25:44;0.10;;;0.05;;
40867;SDS011;26586;50.708;22.412;2023-06-14T00:28:11;0.00;;;0.00;;
40867;SDS011;26586;50.708;22.412;2023-06-14T00:30:37;0.00;;;0.00;;
40867;SDS011;26586;50.708;22.412;2023-06-14T00:35:38;0.00;;;0.00;;
40867;SDS011;26586;50.708;22.412;2023-06-14T00:38:05;0.00;;;0.00;;
40867;SDS011;26586;50.708;22.412;2023-06-14T00:40:31;1.00;;;0.57;;
40867;SDS011;26586;50.708;22.412;2023-06-14T00:42:58;0.95;;;0.13;;
40867;SDS011;26586;50.708;22.412;2023-06-14T00:45:24;0.10;;;0.05;;
40867;SDS011;26586;50.708;22.412;2023-06-14T00:47:50;0.00;;;0.00;;
40867;SDS011;26586;50.708;22.412;2023-06-14T00:50:22;0.00;;;0.00;;
40867;SDS011;26586;50.708;22.412;2023-06-14T00:52:48;0.10;;;0.10;;
40867;SDS011;26586;50.708;22.412;2023-06-14T00:55:15;0.10;;;0.10;;
40867;SDS011;26586;50.708;22.412;2023-06-14T00:57:41;0.10;;;0.10;;
40867;SDS011;26586;50.708;22.412;2023-06-14T01:00:08;0.20;;;0.10;;
40867;SDS011;26586;50.708;22.412;2023-06-14T01:02:38;1.30;;;0.57;;
40867;SDS011;26586;50.708;22.412;2023-06-14T01:05:04;0.17;;;0.17;;
40867;SDS011;26586;50.708;22.412;2023-06-14T01:15:47;0.00;;;0.00;;
40867;SDS011;26586;50.708;22.412;2023-06-14T01:18:15;0.00;;;0.00;;
40867;SDS011;26586;50.708;22.412;2023-06-14T01:20:45;0.00;;;0.00;;
40867;SDS011;26586;50.708;22.412;2023-06-14T01:23:18;0.10;;;0.10;;
40867;SDS011;26586;50.708;22.412;2023-06-14T01:25:46;0.10;;;0.10;;
40867;SDS011;26586;50.708;22.412;2023-06-14T01:28:13;0.00;;;0.00;;
40867;SDS011;26586;50.708;22.412;2023-06-14T01:30:42;0.08;;;0.08;;
40867;SDS011;26586;50.708;22.412;2023-06-14T01:33:12;0.95;;;0.20;;
40867;SDS011;26586;50.708;22.412;2023-06-14T01:35:43;0.05;;;0.05;;
40867;SDS011;26586;50.708;22.412;2023-06-14T01:38:11;0.50;;;0.50;;
40867;SDS011;26586;50.708;22.412;2023-06-14T01:40:39;0.10;;;0.10;;
40867;SDS011;26586;50.708;22.412;2023-06-14T01:45:32;0.00;;;0.00;;
40867;SDS011;26586;50.708;22.412;2023-06-14T01:48:00;0.08;;;0.08;;
40867;SDS011;26586;50.708;22.412;2023-06-14T01:50:30;0.00;;;0.00;;
40867;SDS011;26586;50.708;22.412;2023-06-14T01:52:57;0.10;;;0.08;;
40867;SDS011;26586;50.708;22.412;2023-06-14T01:57:53;0.17;;;0.17;;
40867;SDS011;26586;50.708;22.412;2023-06-14T02:00:20;0.75;;;0.75;;
40867;SDS011;26586;50.708;22.412;2023-06-14T02:02:46;4.15;;;1.23;;
40867;SDS011;26586;50.708;22.412;2023-06-14T02:05:13;1.13;;;1.02;;
40867;SDS011;26586;50.708;22.412;2023-06-14T02:07:40;0.93;;;0.43;;
40867;SDS011;26586;50.708;22.412;2023-06-14T02:10:07;0.60;;;0.60;;
40867;SDS011;26586;50.708;22.412;2023-06-14T02:12:33;2.70;;;0.52;;
40867;SDS011;26586;50.708;22.412;2023-06-14T02:15:00;1.38;;;0.22;;
40867;SDS011;26586;50.708;22.412;2023-06-14T02:17:26;0.70;;;0.47;;
40867;SDS011;26586;50.708;22.412;2023-06-14T02:19:52;0.10;;;0.10;;
40867;SDS011;26586;50.708;22.412;2023-06-14T02:22:18;0.17;;;0.17;;
40867;SDS011;26586;50.708;22.412;2023-06-14T02:24:46;2.03;;;0.43;;
40867;SDS011;26586;50.708;22.412;2023-06-14T02:27:12;0.40;;;0.40;;
40867;SDS011;26586;50.708;22.412;2023-06-14T02:29:39;0.13;;;0.13;;
40867;SDS011;26586;50.708;22.412;2023-06-14T02:32:05;0.30;;;0.30;;
40867;SDS011;26586;50.708;22.412;2023-06-14T02:34:33;0.00;;;0.00;;
40867;SDS011;26586;50.708;22.412;2023-06-14T02:37:00;0.15;;;0.05;;
40867;SDS011;26586;50.708;22.412;2023-06-14T02:39:29;0.52;;;0.30;;
40867;SDS011;26586;50.708;22.412;2023-06-14T02:41:55;1.65;;;0.20;;
40867;SDS011;26586;50.708;22.412;2023-06-14T02:44:25;0.13;;;0.13;;
40867;SDS011;26586;50.708;22.412;2023-06-14T02:46:53;0.10;;;0.10;;
40867;SDS011;26586;50.708;22.412;2023-06-14T02:49:21;0.65;;;0.50;;
40867;SDS011;26586;50.708;22.412;2023-06-14T02:51:48;0.10;;;0.10;;
40867;SDS011;26586;50.708;22.412;2023-06-14T02:54:14;0.10;;;0.10;;
40867;SDS011;26586;50.708;22.412;2023-06-14T02:56:40;0.40;;;0.20;;
40867;SDS011;26586;50.708;22.412;2023-06-14T02:59:07;0.15;;;0.00;;
40867;SDS011;26586;50.708;22.412;2023-06-14T03:01:34;0.10;;;0.10;;
40867;SDS011;26586;50.708;22.412;2023-06-14T03:04:01;1.38;;;0.20;;
40867;SDS011;26586;50.708;22.412;2023-06-14T03:06:29;3.95;;;0.98;;
40867;SDS011;26586;50.708;22.412;2023-06-14T03:08:59;0.47;;;0.47;;
40867;SDS011;26586;50.708;22.412;2023-06-14T03:11:26;0.17;;;0.08;;
40867;SDS011;26586;50.708;22.412;2023-06-14T03:13:53;1.20;;;0.77;;
40867;SDS011;26586;50.708;22.412;2023-06-14T03:16:20;1.55;;;1.27;;
40867;SDS011;26586;50.708;22.412;2023-06-14T03:18:51;0.10;;;0.10;;
40867;SDS011;26586;50.708;22.412;2023-06-14T03:21:18;0.20;;;0.20;;
40867;SDS011;26586;50.708;22.412;2023-06-14T03:23:46;0.30;;;0.28;;
40867;SDS011;26586;50.708;22.412;2023-06-14T03:26:13;0.68;;;0.60;;
40867;SDS011;26586;50.708;22.412;2023-06-14T03:31:07;1.13;;;1.00;;
40867;SDS011;26586;50.708;22.412;2023-06-14T03:33:34;2.42;;;2.15;;
40867;SDS011;26586;50.708;22.412;2023-06-14T03:36:01;1.05;;;0.95;;
40867;SDS011;26586;50.708;22.412;2023-06-14T03:38:28;4.55;;;2.35;;
40867;SDS011;26586;50.708;22.412;2023-06-14T03:40:54;2.03;;;1.43;;
40867;SDS011;26586;50.708;22.412;2023-06-14T03:43:21;3.58;;;2.05;;
40867;SDS011;26586;50.708;22.412;2023-06-14T03:45:47;3.88;;;1.52;;
40867;SDS011;26586;50.708;22.412;2023-06-14T03:48:13;1.13;;;1.02;;
40867;SDS011;26586;50.708;22.412;2023-06-14T03:50:40;0.70;;;0.63;;
40867;SDS011;26586;50.708;22.412;2023-06-14T03:53:08;0.20;;;0.10;;
40867;SDS011;26586;50.708;22.412;2023-06-14T03:55:34;0.22;;;0.17;;
40867;SDS011;26586;50.708;22.412;2023-06-14T03:58:01;0.32;;;0.30;;
40867;SDS011;26586;50.708;22.412;2023-06-14T04:00:27;0.10;;;0.10;;
40867;SDS011;26586;50.708;22.412;2023-06-14T04:02:53;0.28;;;0.28;;
40867;SDS011;26586;50.708;22.412;2023-06-14T04:05:19;0.40;;;0.40;;
40867;SDS011;26586;50.708;22.412;2023-06-14T04:07:46;0.13;;;0.00;;
40867;SDS011;26586;50.708;22.412;2023-06-14T04:10:14;0.30;;;0.30;;
40867;SDS011;26586;50.708;22.412;2023-06-14T04:12:41;0.10;;;0.08;;
40867;SDS011;26586;50.708;22.412;2023-06-14T04:15:08;0.22;;;0.22;;
40867;SDS011;26586;50.708;22.412;2023-06-14T04:17:36;0.03;;;0.03;;
40867;SDS011;26586;50.708;22.412;2023-06-14T04:20:03;0.32;;;0.30;;
40867;SDS011;26586;50.708;22.412;2023-06-14T04:22:31;1.65;;;0.85;;
40867;SDS011;26586;50.708;22.412;2023-06-14T04:24:58;0.38;;;0.30;;
40867;SDS011;26586;50.708;22.412;2023-06-14T04:27:28;0.30;;;0.30;;
40867;SDS011;26586;50.708;22.412;2023-06-14T04:29:56;0.13;;;0.00;;
40867;SDS011;26586;50.708;22.412;2023-06-14T04:32:26;0.10;;;0.10;;
40867;SDS011;26586;50.708;22.412;2023-06-14T04:34:55;0.32;;;0.32;;
40867;SDS011;26586;50.708;22.412;2023-06-14T04:37:23;0.10;;;0.10;;
40867;SDS011;26586;50.708;22.412;2023-06-14T04:39:49;0.10;;;0.10;;
40867;SDS011;26586;50.708;22.412;2023-06-14T04:42:17;0.05;;;0.05;;
40867;SDS011;26586;50.708;22.412;2023-06-14T04:44:46;0.20;;;0.08;;
40867;SDS011;26586;50.708;22.412;2023-06-14T04:47:12;0.10;;;0.00;;
40867;SDS011;26586;50.708;22.412;2023-06-14T04:49:42;1.13;;;0.38;;
40867;SDS011;26586;50.708;22.412;2023-06-14T04:52:08;0.00;;;0.00;;
40867;SDS011;26586;50.708;22.412;2023-06-14T04:54:36;0.00;;;0.00;;
40867;SDS011;26586;50.708;22.412;2023-06-14T04:57:08;0.05;;;0.05;;
40867;SDS011;26586;50.708;22.412;2023-06-14T04:59:39;0.08;;;0.08;;
40867;SDS011;26586;50.708;22.412;2023-06-14T05:02:06;0.43;;;0.43;;
40867;SDS011;26586;50.708;22.412;2023-06-14T05:04:32;1.13;;;0.57;;
40867;SDS011;26586;50.708;22.412;2023-06-14T05:06:58;0.10;;;0.10;;
40867;SDS011;26586;50.708;22.412;2023-06-14T05:09:25;0.20;;;0.20;;
40867;SDS011;26586;50.708;22.412;2023-06-14T05:11:51;0.57;;;0.52;;
40867;SDS011;26586;50.708;22.412;2023-06-14T05:14:17;0.13;;;0.00;;
40867;SDS011;26586;50.708;22.412;2023-06-14T05:16:44;0.00;;;0.00;;
40867;SDS011;26586;50.708;22.412;2023-06-14T05:19:10;0.00;;;0.00;;
40867;SDS011;26586;50.708;22.412;2023-06-14T05:21:36;0.00;;;0.00;;
40867;SDS011;26586;50.708;22.412;2023-06-14T05:24:02;0.37;;;0.20;;
40867;SDS011;26586;50.708;22.412;2023-06-14T05:26:29;0.00;;;0.00;;
40867;SDS011;26586;50.708;22.412;2023-06-14T05:28:55;0.00;;;0.00;;
40867;SDS011;26586;50.708;22.412;2023-06-14T05:31:22;0.40;;;0.40;;
40867;SDS011;26586;50.708;22.412;2023-06-14T05:36:20;0.00;;;0.00;;
40867;SDS011;26586;50.708;22.412;2023-06-14T05:38:50;0.25;;;0.25;;
40867;SDS011;26586;50.708;22.412;2023-06-14T05:41:24;0.10;;;0.10;;
40867;SDS011;26586;50.708;22.412;2023-06-14T05:43:56;0.00;;;0.00;;
40867;SDS011;26586;50.708;22.412;2023-06-14T05:46:23;0.73;;;0.30;;
40867;SDS011;26586;50.708;22.412;2023-06-14T05:48:52;0.30;;;0.30;;
40867;SDS011;26586;50.708;22.412;2023-06-14T05:51:20;0.00;;;0.00;;
40867;SDS011;26586;50.708;22.412;2023-06-14T05:56:14;0.08;;;0.08;;
40867;SDS011;26586;50.708;22.412;2023-06-14T05:58:40;0.08;;;0.00;;
40867;SDS011;26586;50.708;22.412;2023-06-14T06:01:08;0.10;;;0.10;;
40867;SDS011;26586;50.708;22.412;2023-06-14T06:03:34;0.05;;;0.05;;
40867;SDS011;26586;50.708;22.412;2023-06-14T06:06:00;0.13;;;0.10;;
40867;SDS011;26586;50.708;22.412;2023-06-14T06:08:26;0.00;;;0.00;;
40867;SDS011;26586;50.708;22.412;2023-06-14T06:10:53;0.45;;;0.38;;
40867;SDS011;26586;50.708;22.412;2023-06-14T06:13:19;0.13;;;0.10;;
40867;SDS011;26586;50.708;22.412;2023-06-14T06:15:45;0.00;;;0.00;;
40867;SDS011;26586;50.708;22.412;2023-06-14T06:18:12;0.00;;;0.00;;
40867;SDS011;26586;50.708;22.412;2023-06-14T06:20:38;0.63;;;0.43;;
40867;SDS011;26586;50.708;22.412;2023-06-14T06:23:04;0.10;;;0.10;;
40867;SDS011;26586;50.708;22.412;2023-06-14T06:25:31;0.00;;;0.00;;
40867;SDS011;26586;50.708;22.412;2023-06-14T06:27:58;0.28;;;0.20;;
40867;SDS011;26586;50.708;22.412;2023-06-14T06:32:51;0.20;;;0.20;;
40867;SDS011;26586;50.708;22.412;2023-06-14T06:35:18;0.00;;;0.00;;
40867;SDS011;26586;50.708;22.412;2023-06-14T06:37:45;0.20;;;0.13;;
40867;SDS011;26586;50.708;22.412;2023-06-14T06:40:11;0.00;;;0.00;;
40867;SDS011;26586;50.708;22.412;2023-06-14T06:42:38;0.00;;;0.00;;
40867;SDS011;26586;50.708;22.412;2023-06-14T06:45:04;0.43;;;0.25;;
40867;SDS011;26586;50.708;22.412;2023-06-14T06:47:31;0.70;;;0.60;;
40867;SDS011;26586;50.708;22.412;2023-06-14T06:49:58;0.25;;;0.10;;
40867;SDS011;26586;50.708;22.412;2023-06-14T06:52:24;0.47;;;0.47;;
40867;SDS011;26586;50.708;22.412;2023-06-14T06:54:51;0.52;;;0.43;;
40867;SDS011;26586;50.708;22.412;2023-06-14T06:57:20;0.00;;;0.00;;
40867;SDS011;26586;50.708;22.412;2023-06-14T06:59:48;1.08;;;0.22;;
40867;SDS011;26586;50.708;22.412;2023-06-14T07:02:15;0.80;;;0.43;;
40867;SDS011;26586;50.708;22.412;2023-06-14T07:04:49;0.10;;;0.10;;
40867;SDS011;26586;50.708;22.412;2023-06-14T07:07:15;0.00;;;0.00;;
40867;SDS011;26586;50.708;22.412;2023-06-14T07:09:41;0.60;;;0.35;;
40867;SDS011;26586;50.708;22.412;2023-06-14T07:12:08;0.10;;;0.10;;
40867;SDS011;26586;50.708;22.412;2023-06-14T07:14:35;2.20;;;1.80;;
40867;SDS011;26586;50.708;22.412;2023-06-14T07:17:01;2.03;;;1.83;;
40867;SDS011;26586;50.708;22.412;2023-06-14T07:19:28;2.65;;;1.88;;
40867;SDS011;26586;50.708;22.412;2023-06-14T07:21:54;2.67;;;1.27;;
40867;SDS011;26586;50.708;22.412;2023-06-14T07:26:47;0.77;;;0.77;;
40867;SDS011;26586;50.708;22.412;2023-06-14T07:29:14;0.57;;;0.57;;
40867;SDS011;26586;50.708;22.412;2023-06-14T07:31:41;0.30;;;0.30;;
40867;SDS011;26586;50.708;22.412;2023-06-14T07:34:08;1.02;;;0.70;;
40867;SDS011;26586;50.708;22.412;2023-06-14T07:36:34;0.25;;;0.25;;
40867;SDS011;26586;50.708;22.412;2023-06-14T07:39:02;0.03;;;0.03;;
40867;SDS011;26586;50.708;22.412;2023-06-14T07:41:29;0.88;;;0.20;;
40867;SDS011;26586;50.708;22.412;2023-06-14T07:43:55;0.00;;;0.00;;
40867;SDS011;26586;50.708;22.412;2023-06-14T07:46:21;0.10;;;0.10;;
40867;SDS011;26586;50.708;22.412;2023-06-14T07:48:48;0.55;;;0.38;;
40867;SDS011;26586;50.708;22.412;2023-06-14T07:51:14;0.10;;;0.10;;
40867;SDS011;26586;50.708;22.412;2023-06-14T07:53:41;0.43;;;0.38;;
40867;SDS011;26586;50.708;22.412;2023-06-14T07:56:07;0.32;;;0.30;;
40867;SDS011;26586;50.708;22.412;2023-06-14T07:58:34;0.75;;;0.65;;
40867;SDS011;26586;50.708;22.412;2023-06-14T08:01:00;0.73;;;0.30;;
40867;SDS011;26586;50.708;22.412;2023-06-14T08:03:29;0.10;;;0.10;;
40867;SDS011;26586;50.708;22.412;2023-06-14T08:05:55;0.93;;;0.35;;
40867;SDS011;26586;50.708;22.412;2023-06-14T08:08:22;0.73;;;0.50;;
40867;SDS011;26586;50.708;22.412;2023-06-14T08:10:48;0.17;;;0.17;;
40867;SDS011;26586;50.708;22.412;2023-06-14T08:13:15;0.32;;;0.28;;
40867;SDS011;26586;50.708;22.412;2023-06-14T08:15:41;0.10;;;0.10;;
40867;SDS011;26586;50.708;22.412;2023-06-14T08:18:07;0.10;;;0.10;;
40867;SDS011;26586;50.708;22.412;2023-06-14T08:20:33;0.10;;;0.10;;
40867;SDS011;26586;50.708;22.412;2023-06-14T08:23:02;0.10;;;0.10;;
40867;SDS011;26586;50.708;22.412;2023-06-14T08:25:29;0.13;;;0.00;;
40867;SDS011;26586;50.708;22.412;2023-06-14T08:27:56;0.05;;;0.05;;
40867;SDS011;26586;50.708;22.412;2023-06-14T08:30:22;0.00;;;0.00;;
40867;SDS011;26586;50.708;22.412;2023-06-14T08:32:49;0.15;;;0.15;;
40867;SDS011;26586;50.708;22.412;2023-06-14T08:35:15;0.17;;;0.10;;
40867;SDS011;26586;50.708;22.412;2023-06-14T08:37:41;0.40;;;0.35;;
40867;SDS011;26586;50.708;22.412;2023-06-14T08:40:20;0.03;;;0.00;;
40867;SDS011;26586;50.708;22.412;2023-06-14T08:42:52;0.00;;;0.00;;
40867;SDS011;26586;50.708;22.412;2023-06-14T08:45:23;0.20;;;0.20;;
40867;SDS011;26586;50.708;22.412;2023-06-14T08:47:51;0.03;;;0.00;;
40867;SDS011;26586;50.708;22.412;2023-06-14T08:50:21;0.10;;;0.10;;
40867;SDS011;26586;50.708;22.412;2023-06-14T08:52:56;2.85;;;0.45;;
40867;SDS011;26586;50.708;22.412;2023-06-14T08:55:28;0.10;;;0.10;;
40867;SDS011;26586;50.708;22.412;2023-06-14T08:57:56;0.35;;;0.32;;
40867;SDS011;26586;50.708;22.412;2023-06-14T09:00:27;0.00;;;0.00;;
40867;SDS011;26586;50.708;22.412;2023-06-14T09:02:54;0.98;;;0.70;;
40867;SDS011;26586;50.708;22.412;2023-06-14T09:05:23;0.43;;;0.25;;
40867;SDS011;26586;50.708;22.412;2023-06-14T09:07:51;0.10;;;0.10;;
40867;SDS011;26586;50.708;22.412;2023-06-14T09:10:18;0.10;;;0.10;;
40867;SDS011;26586;50.708;22.412;2023-06-14T09:12:46;0.00;;;0.00;;
40867;SDS011;26586;50.708;22.412;2023-06-14T09:15:12;0.00;;;0.00;;
40867;SDS011;26586;50.708;22.412;2023-06-14T09:17:40;0.13;;;0.10;;
40867;SDS011;26586;50.708;22.412;2023-06-14T09:20:07;0.00;;;0.00;;
40867;SDS011;26586;50.708;22.412;2023-06-14T09:22:37;0.25;;;0.15;;
40867;SDS011;26586;50.708;22.412;2023-06-14T09:25:03;0.00;;;0.00;;
40867;SDS011;26586;50.708;22.412;2023-06-14T09:27:31;0.40;;;0.40;;
40867;SDS011;26586;50.708;22.412;2023-06-14T09:32:24;0.43;;;0.35;;
40867;SDS011;26586;50.708;22.412;2023-06-14T09:34:51;3.80;;;0.47;;
40867;SDS011;26586;50.708;22.412;2023-06-14T09:37:31;0.63;;;0.63;;
40867;SDS011;26586;50.708;22.412;2023-06-14T09:39:58;0.38;;;0.28;;
40867;SDS011;26586;50.708;22.412;2023-06-14T09:42:25;0.52;;;0.47;;
40867;SDS011;26586;50.708;22.412;2023-06-14T09:44:52;0.98;;;0.73;;
40867;SDS011;26586;50.708;22.412;2023-06-14T09:47:20;0.43;;;0.43;;
40867;SDS011;26586;50.708;22.412;2023-06-14T09:49:47;0.28;;;0.20;;
40867;SDS011;26586;50.708;22.412;2023-06-14T09:52:15;0.52;;;0.43;;
40867;SDS011;26586;50.708;22.412;2023-06-14T09:54:43;0.77;;;0.68;;
40867;SDS011;26586;50.708;22.412;2023-06-14T09:57:13;0.30;;;0.30;;
40867;SDS011;26586;50.708;22.412;2023-06-14T09:59:44;0.10;;;0.10;;
40867;SDS011;26586;50.708;22.412;2023-06-14T10:05:25;0.20;;;0.20;;
40867;SDS011;26586;50.708;22.412;2023-06-14T10:07:53;1.45;;;0.80;;
40867;SDS011;26586;50.708;22.412;2023-06-14T10:10:29;0.10;;;0.10;;
40867;SDS011;26586;50.708;22.412;2023-06-14T10:12:56;0.10;;;0.10;;
40867;SDS011;26586;50.708;22.412;2023-06-14T10:15:38;0.30;;;0.30;;
40867;SDS011;26586;50.708;22.412;2023-06-14T10:23:54;0.38;;;0.38;;
40867;SDS011;26586;50.708;22.412;2023-06-14T10:26:22;0.70;;;0.60;;
40867;SDS011;26586;50.708;22.412;2023-06-14T10:28:56;0.55;;;0.55;;
40867;SDS011;26586;50.708;22.412;2023-06-14T10:31:39;0.25;;;0.25;;
40867;SDS011;26586;50.708;22.412;2023-06-14T10:34:09;0.63;;;0.57;;
40867;SDS011;26586;50.708;22.412;2023-06-14T10:39:10;0.90;;;0.60;;
40867;SDS011;26586;50.708;22.412;2023-06-14T10:41:40;1.00;;;0.65;;
40867;SDS011;26586;50.708;22.412;2023-06-14T10:46:36;0.30;;;0.20;;
40867;SDS011;26586;50.708;22.412;2023-06-14T10:49:02;0.30;;;0.30;;
40867;SDS011;26586;50.708;22.412;2023-06-14T10:51:38;0.25;;;0.17;;
40867;SDS011;26586;50.708;22.412;2023-06-14T10:54:14;0.47;;;0.47;;
40867;SDS011;26586;50.708;22.412;2023-06-14T10:56:52;1.10;;;0.17;;
40867;SDS011;26586;50.708;22.412;2023-06-14T10:59:20;2.08;;;0.70;;
40867;SDS011;26586;50.708;22.412;2023-06-14T11:01:58;0.20;;;0.10;;
40867;SDS011;26586;50.708;22.412;2023-06-14T11:04:39;0.10;;;0.10;;
40867;SDS011;26586;50.708;22.412;2023-06-14T11:12:36;0.30;;;0.30;;
40867;SDS011;26586;50.708;22.412;2023-06-14T11:15:06;2.78;;;1.50;;
40867;SDS011;26586;50.708;22.412;2023-06-14T11:17:32;0.20;;;0.20;;
40867;SDS011;26586;50.708;22.412;2023-06-14T11:20:08;0.20;;;0.20;;
40867;SDS011;26586;50.708;22.412;2023-06-14T11:22:41;0.05;;;0.05;;
40867;SDS011;26586;50.708;22.412;2023-06-14T11:25:08;3.03;;;0.30;;
40867;SDS011;26586;50.708;22.412;2023-06-14T11:27:35;0.03;;;0.00;;
40867;SDS011;26586;50.708;22.412;2023-06-14T11:30:02;0.08;;;0.08;;
40867;SDS011;26586;50.708;22.412;2023-06-14T11:32:31;0.10;;;0.00;;
40867;SDS011;26586;50.708;22.412;2023-06-14T11:34:57;0.25;;;0.13;;
40867;SDS011;26586;50.708;22.412;2023-06-14T11:39:57;0.00;;;0.00;;
40867;SDS011;26586;50.708;22.412;2023-06-14T11:42:24;0.13;;;0.13;;
40867;SDS011;26586;50.708;22.412;2023-06-14T11:44:53;0.25;;;0.08;;
40867;SDS011;26586;50.708;22.412;2023-06-14T11:47:20;0.00;;;0.00;;
40867;SDS011;26586;50.708;22.412;2023-06-14T11:49:47;0.20;;;0.03;;
40867;SDS011;26586;50.708;22.412;2023-06-14T11:52:13;0.20;;;0.15;;
40867;SDS011;26586;50.708;22.412;2023-06-14T11:54:40;0.00;;;0.00;;
40867;SDS011;26586;50.708;22.412;2023-06-14T11:57:06;0.40;;;0.20;;
40867;SDS011;26586;50.708;22.412;2023-06-14T11:59:43;0.20;;;0.20;;
40867;SDS011;26586;50.708;22.412;2023-06-14T12:02:19;0.10;;;0.10;;
40867;SDS011;26586;50.708;22.412;2023-06-14T12:04:47;0.80;;;0.55;;
40867;SDS011;26586;50.708;22.412;2023-06-14T12:07:17;0.77;;;0.25;;
40867;SDS011;26586;50.708;22.412;2023-06-14T12:12:35;0.10;;;0.10;;
40867;SDS011;26586;50.708;22.412;2023-06-14T12:15:07;0.00;;;0.00;;
40867;SDS011;26586;50.708;22.412;2023-06-14T12:17:37;0.10;;;0.10;;
40867;SDS011;26586;50.708;22.412;2023-06-14T12:20:08;0.10;;;0.10;;
40867;SDS011;26586;50.708;22.412;2023-06-14T12:22:51;0.00;;;0.00;;
40867;SDS011;26586;50.708;22.412;2023-06-14T12:25:34;0.00;;;0.00;;
40867;SDS011;26586;50.708;22.412;2023-06-14T12:28:04;0.00;;;0.00;;
40867;SDS011;26586;50.708;22.412;2023-06-14T12:30:32;0.52;;;0.35;;
40867;SDS011;26586;50.708;22.412;2023-06-14T12:35:26;0.10;;;0.10;;
40867;SDS011;26586;50.708;22.412;2023-06-14T12:37:58;0.00;;;0.00;;
40867;SDS011;26586;50.708;22.412;2023-06-14T12:42:51;0.15;;;0.10;;
40867;SDS011;26586;50.708;22.412;2023-06-14T12:45:18;0.00;;;0.00;;
40867;SDS011;26586;50.708;22.412;2023-06-14T12:47:44;0.00;;;0.00;;
40867;SDS011;26586;50.708;22.412;2023-06-14T12:50:13;0.00;;;0.00;;
40867;SDS011;26586;50.708;22.412;2023-06-14T12:52:42;5.95;;;0.47;;
40867;SDS011;26586;50.708;22.412;2023-06-14T12:55:10;0.00;;;0.00;;
40867;SDS011;26586;50.708;22.412;2023-06-14T12:57:36;0.00;;;0.00;;
40867;SDS011;26586;50.708;22.412;2023-06-14T13:00:04;0.28;;;0.10;;
40867;SDS011;26586;50.708;22.412;2023-06-14T13:02:32;0.10;;;0.05;;
40867;SDS011;26586;50.708;22.412;2023-06-14T13:05:02;0.00;;;0.00;;
40867;SDS011;26586;50.708;22.412;2023-06-14T13:07:30;0.10;;;0.10;;
40867;SDS011;26586;50.708;22.412;2023-06-14T13:09:56;0.00;;;0.00;;
40867;SDS011;26586;50.708;22.412;2023-06-14T13:12:26;0.00;;;0.00;;
40867;SDS011;26586;50.708;22.412;2023-06-14T13:14:56;0.10;;;0.10;;
40867;SDS011;26586;50.708;22.412;2023-06-14T13:17:22;0.10;;;0.10;;
40867;SDS011;26586;50.708;22.412;2023-06-14T13:19:50;0.00;;;0.00;;
40867;SDS011;26586;50.708;22.412;2023-06-14T13:22:19;0.00;;;0.00;;
40867;SDS011;26586;50.708;22.412;2023-06-14T13:24:57;0.08;;;0.08;;
40867;SDS011;26586;50.708;22.412;2023-06-14T13:27:23;0.00;;;0.00;;
40867;SDS011;26586;50.708;22.412;2023-06-14T13:29:52;0.03;;;0.03;;
40867;SDS011;26586;50.708;22.412;2023-06-14T13:32:21;0.00;;;0.00;;
40867;SDS011;26586;50.708;22.412;2023-06-14T13:34:48;0.10;;;0.10;;
40867;SDS011;26586;50.708;22.412;2023-06-14T13:37:15;0.00;;;0.00;;
40867;SDS011;26586;50.708;22.412;2023-06-14T13:39:46;0.10;;;0.00;;
40867;SDS011;26586;50.708;22.412;2023-06-14T13:42:12;0.00;;;0.00;;
40867;SDS011;26586;50.708;22.412;2023-06-14T13:44:39;0.15;;;0.13;;
40867;SDS011;26586;50.708;22.412;2023-06-14T13:47:08;0.10;;;0.10;;
40867;SDS011;26586;50.708;22.412;2023-06-14T13:49:47;0.00;;;0.00;;
40867;SDS011;26586;50.708;22.412;2023-06-14T13:52:14;0.45;;;0.13;;
40867;SDS011;26586;50.708;22.412;2023-06-14T13:54:41;0.00;;;0.00;;
40867;SDS011;26586;50.708;22.412;2023-06-14T13:57:09;0.17;;;0.10;;
40867;SDS011;26586;50.708;22.412;2023-06-14T13:59:41;0.00;;;0.00;;
40867;SDS011;26586;50.708;22.412;2023-06-14T14:02:10;0.00;;;0.00;;
40867;SDS011;26586;50.708;22.412;2023-06-14T14:04:40;0.35;;;0.10;;
40867;SDS011;26586;50.708;22.412;2023-06-14T14:07:07;0.30;;;0.15;;
40867;SDS011;26586;50.708;22.412;2023-06-14T14:12:06;0.30;;;0.30;;
40867;SDS011;26586;50.708;22.412;2023-06-14T14:14:34;0.00;;;0.00;;
40867;SDS011;26586;50.708;22.412;2023-06-14T14:17:03;0.03;;;0.03;;
40867;SDS011;26586;50.708;22.412;2023-06-14T14:19:44;0.03;;;0.00;;
40867;SDS011;26586;50.708;22.412;2023-06-14T14:22:11;0.55;;;0.55;;
40867;SDS011;26586;50.708;22.412;2023-06-14T14:24:40;0.00;;;0.00;;
40867;SDS011;26586;50.708;22.412;2023-06-14T14:27:06;0.10;;;0.10;;
40867;SDS011;26586;50.708;22.412;2023-06-14T14:29:34;0.05;;;0.05;;
40867;SDS011;26586;50.708;22.412;2023-06-14T14:32:01;0.00;;;0.00;;
40867;SDS011;26586;50.708;22.412;2023-06-14T14:34:28;0.13;;;0.03;;
40867;SDS011;26586;50.708;22.412;2023-06-14T14:36:55;0.10;;;0.10;;
40867;SDS011;26586;50.708;22.412;2023-06-14T14:39:25;0.00;;;0.00;;
40867;SDS011;26586;50.708;22.412;2023-06-14T14:41:51;0.10;;;0.10;;
40867;SDS011;26586;50.708;22.412;2023-06-14T14:44:18;0.00;;;0.00;;
40867;SDS011;26586;50.708;22.412;2023-06-14T14:46:44;0.00;;;0.00;;
40867;SDS011;26586;50.708;22.412;2023-06-14T14:49:11;0.00;;;0.00;;
40867;SDS011;26586;50.708;22.412;2023-06-14T14:51:42;0.00;;;0.00;;
40867;SDS011;26586;50.708;22.412;2023-06-14T14:54:11;0.00;;;0.00;;
40867;SDS011;26586;50.708;22.412;2023-06-14T14:56:47;0.57;;;0.35;;
40867;SDS011;26586;50.708;22.412;2023-06-14T14:59:14;0.00;;;0.00;;
40867;SDS011;26586;50.708;22.412;2023-06-14T15:01:44;0.25;;;0.20;;
40867;SDS011;26586;50.708;22.412;2023-06-14T15:04:20;0.00;;;0.00;;
40867;SDS011;26586;50.708;22.412;2023-06-14T15:06:51;0.20;;;0.20;;
40867;SDS011;26586;50.708;22.412;2023-06-14T15:09:17;0.00;;;0.00;;
40867;SDS011;26586;50.708;22.412;2023-06-14T15:11:46;0.40;;;0.28;;
40867;SDS011;26586;50.708;22.412;2023-06-14T15:14:14;0.20;;;0.20;;
40867;SDS011;26586;50.708;22.412;2023-06-14T15:19:07;0.40;;;0.20;;
40867;SDS011;26586;50.708;22.412;2023-06-14T15:21:36;0.00;;;0.00;;
40867;SDS011;26586;50.708;22.412;2023-06-14T15:24:03;0.00;;;0.00;;
40867;SDS011;26586;50.708;22.412;2023-06-14T15:26:36;0.10;;;0.03;;
40867;SDS011;26586;50.708;22.412;2023-06-14T15:29:08;0.22;;;0.22;;
40867;SDS011;26586;50.708;22.412;2023-06-14T15:31:34;0.00;;;0.00;;
40867;SDS011;26586;50.708;22.412;2023-06-14T15:34:03;3.20;;;0.28;;
40867;SDS011;26586;50.708;22.412;2023-06-14T15:39:00;0.10;;;0.00;;
40867;SDS011;26586;50.708;22.412;2023-06-14T15:41:26;0.10;;;0.10;;
40867;SDS011;26586;50.708;22.412;2023-06-14T15:43:52;0.15;;;0.10;;
40867;SDS011;26586;50.708;22.412;2023-06-14T15:46:21;0.03;;;0.03;;